首页
METAR-TAF:

METAR-TAF

机场 :

Sarakhs, 伊朗

纬度: 36-30-04N, 经度: 061-03-54E, 海拔: 288米

当前天气观测

该预报发布于54分钟前的08:00 UTC
风速36节,风向南转西南
温度 9°C
湿度 49%
气压 1025 hPa
能見度: 6000

METAR: OIMC 180800Z 20036KT 6000 NSC 09/M01 Q1025

时间: 12:24 (08:54 UTC)


TAF: 丢失

超过4000个机场的气象观测和天气预报(METAR&TAF报告)。

可查询的气象台以黄色和红色小点在地图上表示。

将鼠标移到小点上方,可查看气象台名称。

然后点击查看天气观测和预报。

如需切换地图:点击带黑十字的绿色按钮放大地图;点击带横线的绿色按钮缩小地图;或者点击绿色箭头查看邻近地区的地图。


METAR-TAF: